sensor_id;sensor_type;location;lat;lon;timestamp;pressure;altitude;pressure_sealevel;temperature;humidity
21433;BME280;18592;49.708;10.900;2022-12-28T00:01:12;99471.38;;;5.44;57.05
21433;BME280;18592;49.708;10.900;2022-12-28T00:03:14;99471.56;;;5.42;57.07
21433;BME280;18592;49.708;10.900;2022-12-28T00:05:15;99476.97;;;5.42;56.66
21433;BME280;18592;49.708;10.900;2022-12-28T00:07:18;99475.94;;;5.43;57.06
21433;BME280;18592;49.708;10.900;2022-12-28T00:09:23;99466.16;;;5.42;57.10
21433;BME280;18592;49.708;10.900;2022-12-28T00:11:27;99468.00;;;5.42;57.39
21433;BME280;18592;49.708;10.900;2022-12-28T00:13:32;99466.16;;;5.42;56.72
21433;BME280;18592;49.708;10.900;2022-12-28T00:15:36;99457.88;;;5.44;57.06
21433;BME280;18592;49.708;10.900;2022-12-28T00:17:37;99458.03;;;5.42;56.83
21433;BME280;18592;49.708;10.900;2022-12-28T00:19:39;99453.47;;;5.43;57.09
21433;BME280;18592;49.708;10.900;2022-12-28T00:21:41;99445.56;;;5.41;56.99
21433;BME280;18592;49.708;10.900;2022-12-28T00:23:43;99448.91;;;5.43;57.04
21433;BME280;18592;49.708;10.900;2022-12-28T00:25:45;99443.69;;;5.42;56.94
21433;BME280;18592;49.708;10.900;2022-12-28T00:27:46;99449.94;;;5.42;57.11
21433;BME280;18592;49.708;10.900;2022-12-28T00:29:48;99451.78;;;5.42;57.32
21433;BME280;18592;49.708;10.900;2022-12-28T00:31:49;99451.63;;;5.43;57.06
21433;BME280;18592;49.708;10.900;2022-12-28T00:33:51;99447.06;;;5.44;57.09
21433;BME280;18592;49.708;10.900;2022-12-28T00:35:54;99447.06;;;5.44;57.42
21433;BME280;18592;49.708;10.900;2022-12-28T00:37:55;99449.53;;;5.45;56.94
21433;BME280;18592;49.708;10.900;2022-12-28T00:39:57;99442.44;;;5.44;57.07
21433;BME280;18592;49.708;10.900;2022-12-28T00:41:59;99445.16;;;5.44;56.95
21433;BME280;18592;49.708;10.900;2022-12-28T00:44:00;99448.72;;;5.45;57.25
21433;BME280;18592;49.708;10.900;2022-12-28T00:46:04;99442.44;;;5.44;56.96
21433;BME280;18592;49.708;10.900;2022-12-28T00:48:07;99442.44;;;5.44;57.05
21433;BME280;18592;49.708;10.900;2022-12-28T00:50:11;99446.84;;;5.45;57.30
21433;BME280;18592;49.708;10.900;2022-12-28T00:52:12;99443.28;;;5.45;57.20
21433;BME280;18592;49.708;10.900;2022-12-28T00:54:14;99444.13;;;5.45;57.20
21433;BME280;18592;49.708;10.900;2022-12-28T00:56:18;99443.13;;;5.46;57.10
21433;BME280;18592;49.708;10.900;2022-12-28T00:58:21;99443.28;;;5.45;57.35
21433;BME280;18592;49.708;10.900;2022-12-28T01:00:23;99435.81;;;5.47;57.22
21433;BME280;18592;49.708;10.900;2022-12-28T01:02:24;99442.06;;;5.47;57.21
21433;BME280;18592;49.708;10.900;2022-12-28T01:04:25;99443.13;;;5.46;57.39
21433;BME280;18592;49.708;10.900;2022-12-28T01:06:27;99438.72;;;5.45;57.44
21433;BME280;18592;49.708;10.900;2022-12-28T01:08:30;99440.41;;;5.46;57.21
21433;BME280;18592;49.708;10.900;2022-12-28T01:10:32;99436.03;;;5.45;57.34
21433;BME280;18592;49.708;10.900;2022-12-28T01:12:34;99427.06;;;5.45;57.31
21433;BME280;18592;49.708;10.900;2022-12-28T01:14:38;99426.22;;;5.44;57.17
21433;BME280;18592;49.708;10.900;2022-12-28T01:16:40;99418.97;;;5.45;57.58
21433;BME280;18592;49.708;10.900;2022-12-28T01:18:43;99421.28;;;5.48;57.67
21433;BME280;18592;49.708;10.900;2022-12-28T01:20:44;99427.53;;;5.48;57.15
21433;BME280;18592;49.708;10.900;2022-12-28T01:22:46;99426.69;;;5.48;57.08
21433;BME280;18592;49.708;10.900;2022-12-28T01:24:47;99415.03;;;5.47;57.38
21433;BME280;18592;49.708;10.900;2022-12-28T01:26:49;99415.88;;;5.48;57.27
21433;BME280;18592;49.708;10.900;2022-12-28T01:28:51;99412.97;;;5.49;57.21
21433;BME280;18592;49.708;10.900;2022-12-28T01:30:52;99412.97;;;5.49;57.24
21433;BME280;18592;49.708;10.900;2022-12-28T01:32:54;99404.22;;;5.47;57.23
21433;BME280;18592;49.708;10.900;2022-12-28T01:34:55;99405.28;;;5.46;57.55
21433;BME280;18592;49.708;10.900;2022-12-28T01:36:57;99397.16;;;5.46;57.32
21433;BME280;18592;49.708;10.900;2022-12-28T01:39:00;99389.69;;;5.48;57.33
21433;BME280;18592;49.708;10.900;2022-12-28T01:41:09;99388.63;;;5.49;57.70
21433;BME280;18592;49.708;10.900;2022-12-28T01:43:14;99386.97;;;5.48;57.18
21433;BME280;18592;49.708;10.900;2022-12-28T01:45:30;99381.75;;;5.47;57.78
21433;BME280;18592;49.708;10.900;2022-12-28T01:47:33;99385.50;;;5.46;57.55
21433;BME280;18592;49.708;10.900;2022-12-28T01:49:41;99371.13;;;5.45;57.71
21433;BME280;18592;49.708;10.900;2022-12-28T01:51:50;99369.28;;;5.46;57.67
21433;BME280;18592;49.708;10.900;2022-12-28T01:53:54;99370.94;;;5.47;57.44
21433;BME280;18592;49.708;10.900;2022-12-28T01:55:59;99366.38;;;5.47;57.53
21433;BME280;18592;49.708;10.900;2022-12-28T01:58:05;99363.66;;;5.47;57.74
21433;BME280;18592;49.708;10.900;2022-12-28T02:00:11;99354.91;;;5.45;57.87
21433;BME280;18592;49.708;10.900;2022-12-28T02:02:13;99366.38;;;5.47;57.52
21433;BME280;18592;49.708;10.900;2022-12-28T02:04:16;99363.47;;;5.49;57.56
21433;BME280;18592;49.708;10.900;2022-12-28T02:06:19;99357.22;;;5.48;57.19
21433;BME280;18592;49.708;10.900;2022-12-28T02:10:38;99338.09;;;5.50;57.94
21433;BME280;18592;49.708;10.900;2022-12-28T02:12:46;99341.00;;;5.48;57.86
21433;BME280;18592;49.708;10.900;2022-12-28T02:14:48;99347.06;;;5.50;57.64
21433;BME280;18592;49.708;10.900;2022-12-28T02:16:49;99333.31;;;5.52;57.66
21433;BME280;18592;49.708;10.900;2022-12-28T02:18:52;99333.13;;;5.53;57.76
21433;BME280;18592;49.708;10.900;2022-12-28T02:28:02;99316.69;;;5.48;57.63
21433;BME280;18592;49.708;10.900;2022-12-28T02:30:12;99301.94;;;5.51;57.91
21433;BME280;18592;49.708;10.900;2022-12-28T02:32:48;99297.75;;;5.48;57.71
21433;BME280;18592;49.708;10.900;2022-12-28T02:35:05;99294.84;;;5.50;57.50
21433;BME280;18592;49.708;10.900;2022-12-28T02:37:16;99295.69;;;5.50;57.94
21433;BME280;18592;49.708;10.900;2022-12-28T02:39:21;99286.94;;;5.48;57.66
21433;BME280;18592;49.708;10.900;2022-12-28T02:41:25;99292.13;;;5.50;57.96
21433;BME280;18592;49.708;10.900;2022-12-28T02:43:27;99281.31;;;5.50;58.03
21433;BME280;18592;49.708;10.900;2022-12-28T02:45:40;99284.03;;;5.50;57.42
21433;BME280;18592;49.708;10.900;2022-12-28T02:48:01;99272.38;;;5.49;57.82
21433;BME280;18592;49.708;10.900;2022-12-28T02:50:23;99271.34;;;5.50;58.15
21433;BME280;18592;49.708;10.900;2022-12-28T03:00:49;99259.91;;;5.48;57.59
21433;BME280;18592;49.708;10.900;2022-12-28T03:03:05;99259.28;;;5.46;58.07
21433;BME280;18592;49.708;10.900;2022-12-28T03:05:17;99240.75;;;5.50;57.96
21433;BME280;18592;49.708;10.900;2022-12-28T03:07:53;99237.22;;;5.49;58.00
21433;BME280;18592;49.708;10.900;2022-12-28T03:10:27;99229.31;;;5.48;57.73
21433;BME280;18592;49.708;10.900;2022-12-28T03:12:39;99223.69;;;5.49;58.14
21433;BME280;18592;49.708;10.900;2022-12-28T03:14:47;99228.09;;;5.50;57.82
21433;BME280;18592;49.708;10.900;2022-12-28T03:16:52;99219.97;;;5.50;57.63
21433;BME280;18592;49.708;10.900;2022-12-28T03:19:13;99229.09;;;5.49;58.18
21433;BME280;18592;49.708;10.900;2022-12-28T03:21:36;99229.94;;;5.50;58.15
21433;BME280;18592;49.708;10.900;2022-12-28T03:23:57;99221.00;;;5.49;58.12
21433;BME280;18592;49.708;10.900;2022-12-28T03:26:19;99217.66;;;5.47;57.94
21433;BME280;18592;49.708;10.900;2022-12-28T03:28:43;99209.56;;;5.47;58.48
21433;BME280;18592;49.708;10.900;2022-12-28T03:31:13;99205.84;;;5.48;57.86
21433;BME280;18592;49.708;10.900;2022-12-28T03:33:20;99216.25;;;5.51;58.04
21433;BME280;18592;49.708;10.900;2022-12-28T03:35:36;99212.50;;;5.52;58.53
21433;BME280;18592;49.708;10.900;2022-12-28T03:37:49;99207.91;;;5.53;57.79
21433;BME280;18592;49.708;10.900;2022-12-28T03:40:08;99209.38;;;5.55;58.53
21433;BME280;18592;49.708;10.900;2022-12-28T03:42:33;99211.06;;;5.56;58.37
21433;BME280;18592;49.708;10.900;2022-12-28T03:45:01;99202.28;;;5.54;58.32
21433;BME280;18592;49.708;10.900;2022-12-28T03:47:09;99196.06;;;5.54;57.95
21433;BME280;18592;49.708;10.900;2022-12-28T03:49:12;99188.78;;;5.54;57.87
21433;BME280;18592;49.708;10.900;2022-12-28T03:51:18;99186.72;;;5.56;58.03
21433;BME280;18592;49.708;10.900;2022-12-28T03:53:26;99195.88;;;5.55;58.30
21433;BME280;18592;49.708;10.900;2022-12-28T03:55:31;99192.75;;;5.58;57.87
21433;BME280;18592;49.708;10.900;2022-12-28T03:57:34;99194.63;;;5.58;58.10
21433;BME280;18592;49.708;10.900;2022-12-28T03:59:38;99193.59;;;5.59;58.52
21433;BME280;18592;49.708;10.900;2022-12-28T04:01:41;99195.06;;;5.61;57.96
21433;BME280;18592;49.708;10.900;2022-12-28T04:03:43;99170.06;;;5.59;58.26
21433;BME280;18592;49.708;10.900;2022-12-28T04:05:44;99175.47;;;5.59;57.96
21433;BME280;18592;49.708;10.900;2022-12-28T04:07:47;99163.63;;;5.60;58.30
21433;BME280;18592;49.708;10.900;2022-12-28T04:09:49;99164.25;;;5.62;58.55
21433;BME280;18592;49.708;10.900;2022-12-28T04:11:50;99155.13;;;5.63;57.93
21433;BME280;18592;49.708;10.900;2022-12-28T04:14:02;99163.00;;;5.65;58.19
21433;BME280;18592;49.708;10.900;2022-12-28T04:16:14;99155.97;;;5.64;58.22
21433;BME280;18592;49.708;10.900;2022-12-28T04:18:17;99147.00;;;5.63;58.03
21433;BME280;18592;49.708;10.900;2022-12-28T04:20:19;99154.28;;;5.63;58.37
21433;BME280;18592;49.708;10.900;2022-12-28T04:22:22;99148.88;;;5.63;58.06
21433;BME280;18592;49.708;10.900;2022-12-28T04:24:24;99138.06;;;5.63;57.87
21433;BME280;18592;49.708;10.900;2022-12-28T04:26:27;99153.44;;;5.62;58.65
21433;BME280;18592;49.708;10.900;2022-12-28T04:28:30;99158.84;;;5.62;57.93
21433;BME280;18592;49.708;10.900;2022-12-28T04:30:51;99155.13;;;5.63;58.05
21433;BME280;18592;49.708;10.900;2022-12-28T04:32:54;99156.78;;;5.64;58.35
21433;BME280;18592;49.708;10.900;2022-12-28T04:34:56;99155.13;;;5.63;58.26
21433;BME280;18592;49.708;10.900;2022-12-28T04:36:57;99155.13;;;5.63;58.09
21433;BME280;18592;49.708;10.900;2022-12-28T04:39:00;99148.66;;;5.64;58.49
21433;BME280;18592;49.708;10.900;2022-12-28T04:41:03;99145.94;;;5.64;58.29
21433;BME280;18592;49.708;10.900;2022-12-28T04:43:05;99151.19;;;5.66;58.03
21433;BME280;18592;49.708;10.900;2022-12-28T04:45:07;99141.19;;;5.66;58.22
21433;BME280;18592;49.708;10.900;2022-12-28T04:47:09;99145.53;;;5.67;57.99
21433;BME280;18592;49.708;10.900;2022-12-28T04:49:10;99149.94;;;5.68;58.20
21433;BME280;18592;49.708;10.900;2022-12-28T04:53:18;99141.41;;;5.71;57.98
21433;BME280;18592;49.708;10.900;2022-12-28T04:55:20;99143.47;;;5.69;58.65
21433;BME280;18592;49.708;10.900;2022-12-28T04:57:33;99140.56;;;5.71;57.99
21433;BME280;18592;49.708;10.900;2022-12-28T04:59:35;99150.16;;;5.73;58.46
21433;BME280;18592;49.708;10.900;2022-12-28T05:01:36;99157.22;;;5.74;58.35
21433;BME280;18592;49.708;10.900;2022-12-28T05:03:39;99143.50;;;5.76;58.43
21433;BME280;18592;49.708;10.900;2022-12-28T05:05:41;99136.00;;;5.78;58.67
21433;BME280;18592;49.708;10.900;2022-12-28T05:07:43;99143.91;;;5.79;58.33
21433;BME280;18592;49.708;10.900;2022-12-28T05:09:44;99138.50;;;5.79;58.96
21433;BME280;18592;49.708;10.900;2022-12-28T05:11:46;99134.75;;;5.81;58.33
21433;BME280;18592;49.708;10.900;2022-12-28T05:13:48;99136.44;;;5.82;58.62
21433;BME280;18592;49.708;10.900;2022-12-28T05:15:49;99136.22;;;5.83;58.61
21433;BME280;18592;49.708;10.900;2022-12-28T05:17:53;99136.03;;;5.85;58.55
21433;BME280;18592;49.708;10.900;2022-12-28T05:19:55;99127.50;;;5.88;58.56
21433;BME280;18592;49.708;10.900;2022-12-28T05:21:56;99124.81;;;5.88;58.62
21433;BME280;18592;49.708;10.900;2022-12-28T05:23:58;99129.38;;;5.87;58.85
21433;BME280;18592;49.708;10.900;2022-12-28T05:26:00;99126.47;;;5.89;58.99
21433;BME280;18592;49.708;10.900;2022-12-28T05:28:01;99129.81;;;5.91;58.61
21433;BME280;18592;49.708;10.900;2022-12-28T05:30:03;99125.84;;;5.93;59.31
21433;BME280;18592;49.708;10.900;2022-12-28T05:32:05;99121.91;;;5.96;58.94
21433;BME280;18592;49.708;10.900;2022-12-28T05:34:07;99116.25;;;5.97;58.76
21433;BME280;18592;49.708;10.900;2022-12-28T05:36:17;99113.38;;;5.99;58.92
21433;BME280;18592;49.708;10.900;2022-12-28T05:38:18;99114.81;;;6.01;58.42
21433;BME280;18592;49.708;10.900;2022-12-28T05:40:20;99119.41;;;6.01;58.75
21433;BME280;18592;49.708;10.900;2022-12-28T05:42:22;99116.28;;;6.04;58.85
21433;BME280;18592;49.708;10.900;2022-12-28T05:44:23;99113.34;;;6.05;58.99
21433;BME280;18592;49.708;10.900;2022-12-28T05:46:28;99113.16;;;6.07;58.72
21433;BME280;18592;49.708;10.900;2022-12-28T05:48:32;99114.81;;;6.08;58.73
21433;BME280;18592;49.708;10.900;2022-12-28T05:50:34;99122.75;;;6.09;58.76
21433;BME280;18592;49.708;10.900;2022-12-28T05:52:36;99112.72;;;6.10;58.62
21433;BME280;18592;49.708;10.900;2022-12-28T05:54:39;99116.09;;;6.12;58.43
21433;BME280;18592;49.708;10.900;2022-12-28T05:56:40;99116.88;;;6.12;58.74
21433;BME280;18592;49.708;10.900;2022-12-28T05:58:43;99123.97;;;6.13;58.75
21433;BME280;18592;49.708;10.900;2022-12-28T06:00:45;99123.34;;;6.18;58.78
21433;BME280;18592;49.708;10.900;2022-12-28T06:02:47;99113.34;;;6.18;58.69
21433;BME280;18592;49.708;10.900;2022-12-28T06:04:48;99111.50;;;6.19;58.40
21433;BME280;18592;49.708;10.900;2022-12-28T06:06:50;99112.31;;;6.19;58.58
21433;BME280;18592;49.708;10.900;2022-12-28T06:08:51;99114.81;;;6.21;58.63
21433;BME280;18592;49.708;10.900;2022-12-28T06:10:53;99097.53;;;6.22;58.96
21433;BME280;18592;49.708;10.900;2022-12-28T06:12:54;99099.19;;;6.23;58.82
21433;BME280;18592;49.708;10.900;2022-12-28T06:14:56;99093.59;;;6.24;59.03
21433;BME280;18592;49.708;10.900;2022-12-28T06:16:57;99088.97;;;6.25;58.77
21433;BME280;18592;49.708;10.900;2022-12-28T06:19:06;99095.22;;;6.25;59.04
21433;BME280;18592;49.708;10.900;2022-12-28T06:21:14;99086.91;;;6.27;58.72
21433;BME280;18592;49.708;10.900;2022-12-28T06:23:16;99086.91;;;6.27;58.82
21433;BME280;18592;49.708;10.900;2022-12-28T06:25:17;99092.09;;;6.28;59.23
21433;BME280;18592;49.708;10.900;2022-12-28T06:27:19;99086.69;;;6.28;58.79
21433;BME280;18592;49.708;10.900;2022-12-28T06:29:20;99090.25;;;6.29;58.83
21433;BME280;18592;49.708;10.900;2022-12-28T06:31:25;99083.75;;;6.30;59.15
21433;BME280;18592;49.708;10.900;2022-12-28T06:33:26;99088.38;;;6.29;58.98
21433;BME280;18592;49.708;10.900;2022-12-28T06:35:28;99083.56;;;6.31;59.33
21433;BME280;18592;49.708;10.900;2022-12-28T06:37:29;99086.28;;;6.31;58.64
21433;BME280;18592;49.708;10.900;2022-12-28T06:39:31;99084.81;;;6.35;59.00
21433;BME280;18592;49.708;10.900;2022-12-28T06:41:32;99083.97;;;6.35;58.93
21433;BME280;18592;49.708;10.900;2022-12-28T06:43:36;99080.22;;;6.36;58.72
21433;BME280;18592;49.708;10.900;2022-12-28T06:45:38;99077.50;;;6.36;59.03
21433;BME280;18592;49.708;10.900;2022-12-28T06:47:39;99074.81;;;6.36;58.86
21433;BME280;18592;49.708;10.900;2022-12-28T06:49:41;99066.47;;;6.37;58.93
21433;BME280;18592;49.708;10.900;2022-12-28T06:51:42;99072.72;;;6.38;59.12
21433;BME280;18592;49.708;10.900;2022-12-28T06:53:45;99059.19;;;6.38;58.93
21433;BME280;18592;49.708;10.900;2022-12-28T06:56:01;99061.69;;;6.39;58.89
21433;BME280;18592;49.708;10.900;2022-12-28T06:58:03;99050.63;;;6.41;59.23
21433;BME280;18592;49.708;10.900;2022-12-28T07:00:06;99056.66;;;6.43;59.12
21433;BME280;18592;49.708;10.900;2022-12-28T07:02:08;99049.19;;;6.45;59.15
21433;BME280;18592;49.708;10.900;2022-12-28T07:04:11;99042.94;;;6.45;59.15
21433;BME280;18592;49.708;10.900;2022-12-28T07:06:13;99041.69;;;6.47;59.16
21433;BME280;18592;49.708;10.900;2022-12-28T07:08:17;99029.78;;;6.48;58.93
21433;BME280;18592;49.708;10.900;2022-12-28T07:10:18;99024.38;;;6.48;58.76
21433;BME280;18592;49.708;10.900;2022-12-28T07:12:20;99021.47;;;6.50;59.10
21433;BME280;18592;49.708;10.900;2022-12-28T07:14:22;99019.38;;;6.52;58.79
21433;BME280;18592;49.708;10.900;2022-12-28T07:16:25;99017.28;;;6.54;58.90
21433;BME280;18592;49.708;10.900;2022-12-28T07:18:28;99011.03;;;6.53;58.81
21433;BME280;18592;49.708;10.900;2022-12-28T07:20:30;99016.25;;;6.55;59.10
21433;BME280;18592;49.708;10.900;2022-12-28T07:22:40;99005.19;;;6.56;58.83
21433;BME280;18592;49.708;10.900;2022-12-28T07:24:42;99014.16;;;6.57;59.05
21433;BME280;18592;49.708;10.900;2022-12-28T07:26:43;99013.91;;;6.58;59.20
21433;BME280;18592;49.708;10.900;2022-12-28T07:28:46;99004.75;;;6.59;59.11
21433;BME280;18592;49.708;10.900;2022-12-28T07:30:48;99001.81;;;6.61;59.14
21433;BME280;18592;49.708;10.900;2022-12-28T07:32:49;99001.81;;;6.61;59.32
21433;BME280;18592;49.708;10.900;2022-12-28T07:34:51;99010.59;;;6.63;59.14
21433;BME280;18592;49.708;10.900;2022-12-28T07:36:52;99008.69;;;6.63;58.98
21433;BME280;18592;49.708;10.900;2022-12-28T07:38:54;99001.41;;;6.64;59.23
21433;BME280;18592;49.708;10.900;2022-12-28T07:41:04;99009.31;;;6.65;59.07
21433;BME280;18592;49.708;10.900;2022-12-28T07:43:06;99010.97;;;6.66;59.27
21433;BME280;18592;49.708;10.900;2022-12-28T07:45:08;99014.28;;;6.68;59.31
21433;BME280;18592;49.708;10.900;2022-12-28T07:47:14;99020.97;;;6.72;59.04
21433;BME280;18592;49.708;10.900;2022-12-28T07:49:16;99016.16;;;6.74;59.18
21433;BME280;18592;49.708;10.900;2022-12-28T07:51:21;99017.00;;;6.75;59.30
21433;BME280;18592;49.708;10.900;2022-12-28T07:53:22;99014.06;;;6.76;59.34
21433;BME280;18592;49.708;10.900;2022-12-28T07:55:24;99009.25;;;6.78;59.22
21433;BME280;18592;49.708;10.900;2022-12-28T07:57:30;99018.00;;;6.80;59.40
21433;BME280;18592;49.708;10.900;2022-12-28T07:59:31;99010.25;;;6.84;59.24
21433;BME280;18592;49.708;10.900;2022-12-28T08:01:34;99010.06;;;6.85;59.31
21433;BME280;18592;49.708;10.900;2022-12-28T08:03:37;99005.25;;;6.87;59.28
21433;BME280;18592;49.708;10.900;2022-12-28T08:05:39;99004.84;;;6.90;59.27
21433;BME280;18592;49.708;10.900;2022-12-28T08:07:41;99002.72;;;6.92;59.38
21433;BME280;18592;49.708;10.900;2022-12-28T08:09:42;99000.63;;;6.94;59.53
21433;BME280;18592;49.708;10.900;2022-12-28T08:11:44;98994.19;;;6.95;59.41
21433;BME280;18592;49.708;10.900;2022-12-28T08:13:48;98997.25;;;6.99;59.33
21433;BME280;18592;49.708;10.900;2022-12-28T08:15:56;98998.72;;;7.01;59.49
21433;BME280;18592;49.708;10.900;2022-12-28T08:17:57;99001.22;;;7.03;59.43
21433;BME280;18592;49.708;10.900;2022-12-28T08:19:59;99003.69;;;7.04;59.17
21433;BME280;18592;49.708;10.900;2022-12-28T08:22:00;99000.16;;;7.04;59.32
21433;BME280;18592;49.708;10.900;2022-12-28T08:24:03;99007.25;;;7.05;59.46
21433;BME280;18592;49.708;10.900;2022-12-28T08:26:11;99005.38;;;7.06;59.66
21433;BME280;18592;49.708;10.900;2022-12-28T08:28:13;99006.59;;;7.10;59.68
21433;BME280;18592;49.708;10.900;2022-12-28T08:30:15;99005.09;;;7.14;59.35
21433;BME280;18592;49.708;10.900;2022-12-28T08:32:16;98998.63;;;7.15;59.91
21433;BME280;18592;49.708;10.900;2022-12-28T08:34:20;99000.91;;;7.18;59.59
21433;BME280;18592;49.708;10.900;2022-12-28T08:36:28;98994.00;;;7.22;59.67
21433;BME280;18592;49.708;10.900;2022-12-28T08:38:30;99004.41;;;7.25;59.45
21433;BME280;18592;49.708;10.900;2022-12-28T08:40:31;98998.53;;;7.28;59.64
21433;BME280;18592;49.708;10.900;2022-12-28T08:42:33;98997.28;;;7.30;59.73
21433;BME280;18592;49.708;10.900;2022-12-28T08:44:34;98996.00;;;7.33;59.58
21433;BME280;18592;49.708;10.900;2022-12-28T08:46:36;98996.19;;;7.38;59.86
21433;BME280;18592;49.708;10.900;2022-12-28T08:48:38;98991.97;;;7.42;59.62
21433;BME280;18592;49.708;10.900;2022-12-28T08:50:40;98991.53;;;7.45;59.99
21433;BME280;18592;49.708;10.900;2022-12-28T08:52:42;98991.69;;;7.50;59.65
21433;BME280;18592;49.708;10.900;2022-12-28T08:54:43;98971.44;;;7.52;59.67
21433;BME280;18592;49.708;10.900;2022-12-28T08:56:45;98974.56;;;7.56;59.63
21433;BME280;18592;49.708;10.900;2022-12-28T08:58:47;98977.44;;;7.61;59.69
21433;BME280;18592;49.708;10.900;2022-12-28T09:00:49;98984.31;;;7.63;59.76
21433;BME280;18592;49.708;10.900;2022-12-28T09:02:51;98972.97;;;7.66;59.32
21433;BME280;18592;49.708;10.900;2022-12-28T09:04:52;98977.13;;;7.69;59.90
21433;BME280;18592;49.708;10.900;2022-12-28T09:06:54;98975.66;;;7.73;59.85
21433;BME280;18592;49.708;10.900;2022-12-28T09:08:57;98981.25;;;7.78;60.06
21433;BME280;18592;49.708;10.900;2022-12-28T09:11:11;98972.66;;;7.81;59.93
21433;BME280;18592;49.708;10.900;2022-12-28T09:13:13;98968.66;;;7.84;59.72
21433;BME280;18592;49.708;10.900;2022-12-28T09:15:14;98957.38;;;7.87;59.66
21433;BME280;18592;49.708;10.900;2022-12-28T09:17:16;98960.44;;;7.90;59.79
21433;BME280;18592;49.708;10.900;2022-12-28T09:19:18;98959.16;;;7.93;59.82
21433;BME280;18592;49.708;10.900;2022-12-28T09:21:22;98957.91;;;7.95;59.98
21433;BME280;18592;49.708;10.900;2022-12-28T09:23:24;98965.34;;;8.00;59.77
21433;BME280;18592;49.708;10.900;2022-12-28T09:25:25;98957.84;;;8.02;59.97
21433;BME280;18592;49.708;10.900;2022-12-28T09:27:27;98951.72;;;8.06;59.99
21433;BME280;18592;49.708;10.900;2022-12-28T09:29:29;98971.94;;;8.10;59.80
21433;BME280;18592;49.708;10.900;2022-12-28T09:31:32;98963.94;;;8.15;59.66
21433;BME280;18592;49.708;10.900;2022-12-28T09:33:36;98962.47;;;8.19;59.76
21433;BME280;18592;49.708;10.900;2022-12-28T09:36:16;98957.63;;;8.21;59.82
21433;BME280;18592;49.708;10.900;2022-12-28T09:38:19;98957.19;;;8.24;60.08
21433;BME280;18592;49.708;10.900;2022-12-28T09:40:21;98956.94;;;8.26;60.13
21433;BME280;18592;49.708;10.900;2022-12-28T09:42:25;98956.28;;;8.30;59.79
21433;BME280;18592;49.708;10.900;2022-12-28T09:45:02;98960.22;;;8.35;59.97
21433;BME280;18592;49.708;10.900;2022-12-28T09:47:26;98956.59;;;8.41;59.93
21433;BME280;18592;49.708;10.900;2022-12-28T09:50:00;98950.69;;;8.44;60.17
21433;BME280;18592;49.708;10.900;2022-12-28T09:54:14;98948.72;;;8.51;60.02
21433;BME280;18592;49.708;10.900;2022-12-28T09:56:35;98941.41;;;8.51;59.98
21433;BME280;18592;49.708;10.900;2022-12-28T09:58:39;98945.09;;;8.57;60.10
21433;BME280;18592;49.708;10.900;2022-12-28T10:00:59;98942.53;;;8.62;60.45
21433;BME280;18592;49.708;10.900;2022-12-28T10:03:05;98948.09;;;8.67;60.20
21433;BME280;18592;49.708;10.900;2022-12-28T10:05:11;98933.25;;;8.69;59.96
21433;BME280;18592;49.708;10.900;2022-12-28T10:07:13;98933.13;;;8.76;59.97
21433;BME280;18592;49.708;10.900;2022-12-28T10:09:27;98928.66;;;8.81;60.12
21433;BME280;18592;49.708;10.900;2022-12-28T10:11:38;98924.22;;;8.87;60.31
21433;BME280;18592;49.708;10.900;2022-12-28T10:13:40;98918.66;;;8.93;60.15
21433;BME280;18592;49.708;10.900;2022-12-28T10:15:57;98919.63;;;8.99;60.50
21433;BME280;18592;49.708;10.900;2022-12-28T10:17:59;98917.03;;;9.04;60.52
21433;BME280;18592;49.708;10.900;2022-12-28T10:20:00;98913.41;;;9.10;60.35
21433;BME280;18592;49.708;10.900;2022-12-28T10:25:57;98908.69;;;9.29;59.92
21433;BME280;18592;49.708;10.900;2022-12-28T10:28:00;98900.66;;;9.34;60.49
21433;BME280;18592;49.708;10.900;2022-12-28T10:30:14;98907.66;;;9.41;60.23
21433;BME280;18592;49.708;10.900;2022-12-28T10:32:16;98895.25;;;9.45;60.37
21433;BME280;18592;49.708;10.900;2022-12-28T10:34:19;98902.44;;;9.51;60.55
21433;BME280;18592;49.708;10.900;2022-12-28T10:36:23;98897.13;;;9.56;60.35
21433;BME280;18592;49.708;10.900;2022-12-28T10:38:32;98895.94;;;9.64;60.20
21433;BME280;18592;49.708;10.900;2022-12-28T10:40:37;98895.00;;;9.70;60.58
21433;BME280;18592;49.708;10.900;2022-12-28T10:42:42;98892.66;;;9.74;60.47
21433;BME280;18592;49.708;10.900;2022-12-28T10:44:47;98887.06;;;9.80;60.04
21433;BME280;18592;49.708;10.900;2022-12-28T10:46:56;98893.47;;;9.86;60.22
21433;BME280;18592;49.708;10.900;2022-12-28T10:48:59;98886.25;;;9.91;60.04
21433;BME280;18592;49.708;10.900;2022-12-28T10:51:15;98885.53;;;9.96;60.27
21433;BME280;18592;49.708;10.900;2022-12-28T10:53:31;98883.75;;;10.01;60.05
21433;BME280;18592;49.708;10.900;2022-12-28T10:55:33;98876.50;;;10.07;60.25
21433;BME280;18592;49.708;10.900;2022-12-28T10:57:34;98870.13;;;10.13;60.11
21433;BME280;18592;49.708;10.900;2022-12-28T10:59:38;98864.78;;;10.18;59.95
21433;BME280;18592;49.708;10.900;2022-12-28T11:01:41;98861.59;;;10.21;60.22
21433;BME280;18592;49.708;10.900;2022-12-28T11:06:15;98852.56;;;10.32;59.52
21433;BME280;18592;49.708;10.900;2022-12-28T11:08:26;98846.84;;;10.34;59.77
21433;BME280;18592;49.708;10.900;2022-12-28T11:10:28;98844.50;;;10.37;59.57
21433;BME280;18592;49.708;10.900;2022-12-28T11:12:31;98845.91;;;10.40;59.92
21433;BME280;18592;49.708;10.900;2022-12-28T11:14:35;98846.78;;;10.45;59.88
21433;BME280;18592;49.708;10.900;2022-12-28T11:16:39;98838.97;;;10.49;59.54
21433;BME280;18592;49.708;10.900;2022-12-28T11:18:41;98838.25;;;10.53;59.57
21433;BME280;18592;49.708;10.900;2022-12-28T11:20:52;98840.47;;;10.56;59.46
21433;BME280;18592;49.708;10.900;2022-12-28T11:22:54;98838.91;;;10.60;59.33
21433;BME280;18592;49.708;10.900;2022-12-28T11:24:58;98830.03;;;10.65;59.22
21433;BME280;18592;49.708;10.900;2022-12-28T11:27:01;98828.72;;;10.67;59.65
21433;BME280;18592;49.708;10.900;2022-12-28T11:29:03;98828.81;;;10.72;59.59
21433;BME280;18592;49.708;10.900;2022-12-28T11:31:06;98824.75;;;10.75;59.39